Time;durP1;ratioP1;P1;durP2;ratioP2;P2;SDS_P1;SDS_P2;PMS_P1;PMS_P2;Temp;Humidity;BMP_temperature;BMP_pressure;BME280_temperature;BME280_humidity;BME280_pressure;Samples;Min_cycle;Max_cycle;Signal;HPM_P1;HPM_P2
2022/02/11 00:02:18;;;;;;;39.38;18.08;;;;;;;-1.38;100.00;95696.09;5052291;28;20041;-50
2022/02/11 00:05:03;;;;;;;38.38;15.48;;;;;;;-1.39;100.00;95684.28;5056216;28;20052;-52
2022/02/11 00:07:31;;;;;;;35.33;15.50;;;;;;;-1.38;100.00;95690.97;5060581;28;20080;-52
2022/02/11 00:09:58;;;;;;;34.05;17.40;;;;;;;-1.48;100.00;95679.16;5050089;28;20494;-48
2022/02/11 00:12:27;;;;;;;33.50;16.05;;;;;;;-1.38;100.00;95693.53;5055622;28;20571;-50
2022/02/11 00:15:34;;;;;;;38.42;18.42;;;;;;;-1.37;100.00;95691.78;5050556;28;20044;-48
2022/02/11 00:17:56;;;;;;;28.40;14.75;;;;;;;-1.33;100.00;95693.16;5052479;28;20091;-52
2022/02/11 00:20:24;;;;;;;41.05;18.63;;;;;;;-1.44;100.00;95701.75;5053462;28;20052;-48
2022/02/11 00:22:51;;;;;;;40.65;16.75;;;;;;;-1.40;100.00;95697.97;5057050;28;20067;-48
2022/02/11 00:25:19;;;;;;;30.90;14.75;;;;;;;-1.43;100.00;95703.34;5051753;28;20102;-49
2022/02/11 00:28:35;;;;;;;34.33;15.57;;;;;;;-1.49;100.00;95698.78;5051318;28;20076;-48
2022/02/11 00:33:28;;;;;;;27.90;14.07;;;;;;;-1.64;100.00;95702.69;5053869;28;20040;-50
2022/02/11 00:36:05;;;;;;;38.70;18.88;;;;;;;-1.62;100.00;95704.19;5051502;28;20129;-50
2022/02/11 01:03:05;;;;;;;47.42;18.75;;;;;;;-1.59;100.00;95682.66;5048148;28;20036;-51
2022/02/11 01:05:31;;;;;;;44.25;18.52;;;;;;;-1.61;100.00;95689.66;5053886;28;20514;-52
2022/02/11 01:07:58;;;;;;;40.58;17.20;;;;;;;-1.62;100.00;95677.81;5053081;28;20052;-51
2022/02/11 01:10:25;;;;;;;54.60;24.25;;;;;;;-1.63;100.00;95686.41;5057824;28;20072;-52
2022/02/11 01:12:54;;;;;;;46.65;21.45;;;;;;;-1.65;100.00;95678.09;5050202;28;20039;-54
2022/02/11 01:15:21;;;;;;;44.15;19.65;;;;;;;-1.68;100.00;95680.91;5054016;28;20068;-51
2022/02/11 01:17:56;;;;;;;32.53;16.83;;;;;;;-1.69;100.00;95681.84;5052887;28;22873;-49
2022/02/11 01:34:09;;;;;;;32.72;15.30;;;;;;;-1.83;100.00;95660.88;5055807;28;19920;-48
2022/02/11 01:59:02;;;;;;;40.95;18.45;;;;;;;-1.94;100.00;95643.13;5053890;28;20091;-50
2022/02/11 02:25:05;;;;;;;47.60;19.73;;;;;;;-2.09;100.00;95645.25;5055998;28;20494;-50
2022/02/11 02:57:47;;;;;;;36.90;18.80;;;;;;;-2.58;100.00;95650.25;5053717;28;20044;-49
2022/02/11 03:49:23;;;;;;;32.13;16.20;;;;;;;-3.03;100.00;95665.88;5050611;28;20044;-50
2022/02/11 04:55:02;;;;;;;26.00;12.43;;;;;;;-3.49;100.00;95662.00;5059211;28;20056;-48
2022/02/11 05:00:15;;;;;;;33.08;14.50;;;;;;;-3.53;100.00;95656.34;5063015;28;20100;-52
2022/02/11 05:02:45;;;;;;;32.05;16.00;;;;;;;-3.51;100.00;95661.28;5056180;28;20044;-51
2022/02/11 05:05:13;;;;;;;32.95;15.20;;;;;;;-3.47;100.00;95655.03;5060429;28;20056;-51
2022/02/11 05:07:40;;;;;;;32.30;15.38;;;;;;;-3.53;100.00;95655.53;5053464;28;20761;-48
2022/02/11 05:10:11;;;;;;;30.63;13.85;;;;;;;-3.49;100.00;95657.72;5060847;28;20044;-49
2022/02/11 05:12:38;;;;;;;45.22;17.95;;;;;;;-3.44;100.00;95657.31;5060822;28;20048;-50
2022/02/11 05:15:08;;;;;;;43.83;22.75;;;;;;;-3.57;100.00;95657.50;5059194;28;20087;-47
2022/02/11 05:17:37;;;;;;;38.45;21.02;;;;;;;-3.57;100.00;95661.81;5058589;28;20438;-50
2022/02/11 05:20:05;;;;;;;49.22;18.15;;;;;;;-3.56;100.00;95658.34;5059649;28;20477;-52
2022/02/11 05:22:33;;;;;;;56.53;25.10;;;;;;;-3.53;100.00;95663.16;5056063;28;20052;-48
2022/02/11 05:25:00;;;;;;;45.67;22.13;;;;;;;-3.46;100.00;95664.28;5058740;28;20041;-52
2022/02/11 05:27:27;;;;;;;58.80;24.55;;;;;;;-3.43;100.00;95664.03;5054734;28;20044;-49
2022/02/11 05:29:54;;;;;;;62.80;25.60;;;;;;;-3.50;100.00;95663.72;5058159;28;20045;-53
2022/02/11 05:32:20;;;;;;;55.95;26.38;;;;;;;-3.47;100.00;95657.59;5057369;28;20098;-49
2022/02/11 05:34:49;;;;;;;52.13;23.48;;;;;;;-3.40;100.00;95668.91;5064698;28;20421;-48
2022/02/11 05:37:16;;;;;;;53.65;24.02;;;;;;;-3.40;100.00;95668.91;5058536;28;20153;-49
2022/02/11 05:39:43;;;;;;;57.13;24.95;;;;;;;-3.41;100.00;95672.38;5059159;28;20513;-50
2022/02/11 05:42:10;;;;;;;53.80;23.85;;;;;;;-3.46;100.00;95669.38;5058821;28;20040;-49
2022/02/11 05:44:37;;;;;;;52.72;25.45;;;;;;;-3.48;100.00;95687.31;5056831;28;20469;-52
2022/02/11 05:47:05;;;;;;;63.60;26.75;;;;;;;-3.52;100.00;95685.16;5057807;28;20047;-52
2022/02/11 05:49:31;;;;;;;58.25;23.58;;;;;;;-3.48;100.00;95691.63;5058478;28;20044;-49
2022/02/11 05:51:58;;;;;;;60.15;26.38;;;;;;;-3.45;100.00;95691.38;5058476;28;20052;-49
2022/02/11 05:54:25;;;;;;;54.78;25.17;;;;;;;-3.45;100.00;95686.28;5058778;28;20087;-53
2022/02/11 05:56:53;;;;;;;67.63;30.25;;;;;;;-3.46;100.00;95682.13;5058806;28;20540;-51
2022/02/11 05:59:23;;;;;;;76.53;31.13;;;;;;;-3.48;100.00;95676.34;5057104;28;20528;-51
2022/02/11 06:01:50;;;;;;;74.93;32.58;;;;;;;-3.34;100.00;95693.88;5054400;28;20045;-52
2022/02/11 06:04:18;;;;;;;70.45;32.38;;;;;;;-3.33;100.00;95695.50;5050670;28;20060;-50
2022/02/11 06:06:45;;;;;;;79.07;32.75;;;;;;;-3.34;100.00;95681.13;5056140;28;20041;-49
2022/02/11 06:09:11;;;;;;;79.38;31.40;;;;;;;-3.16;100.00;95695.88;5049662;28;20533;-48
2022/02/11 06:11:38;;;;;;;75.53;31.15;;;;;;;-3.01;100.00;95702.25;5052845;28;20053;-48
2022/02/11 06:14:05;;;;;;;67.45;30.80;;;;;;;-2.97;100.00;95701.09;5053694;28;20037;-49
2022/02/11 06:16:32;;;;;;;72.32;28.23;;;;;;;-2.92;100.00;95696.41;5057761;28;20061;-51
2022/02/11 06:18:59;;;;;;;54.95;25.52;;;;;;;-2.90;100.00;95707.28;5053840;28;20546;-50
2022/02/11 06:21:25;;;;;;;73.97;29.40;;;;;;;-2.75;100.00;95705.22;5050465;28;20037;-50
2022/02/11 06:23:55;;;;;;;67.43;30.40;;;;;;;-2.65;100.00;95707.78;5058786;28;20738;-54
2022/02/11 06:26:26;;;;;;;59.80;26.25;;;;;;;-2.50;100.00;95703.97;5051361;28;20442;-53
2022/02/11 06:28:52;;;;;;;51.10;26.35;;;;;;;-2.37;100.00;95708.06;5057848;28;20037;-52
2022/02/11 06:31:19;;;;;;;47.45;22.15;;;;;;;-2.22;100.00;95711.84;5051884;28;20049;-50
2022/02/11 06:33:46;;;;;;;41.25;21.30;;;;;;;-2.15;100.00;95712.94;5053565;28;20036;-49
2022/02/11 06:36:13;;;;;;;44.50;19.92;;;;;;;-1.99;100.00;95716.75;5057146;28;20061;-52
2022/02/11 06:38:40;;;;;;;58.40;22.05;;;;;;;-1.86;100.00;95719.84;5054342;28;20094;-51
2022/02/11 06:41:07;;;;;;;46.83;24.58;;;;;;;-1.76;100.00;95712.22;5056746;28;20102;-50
2022/02/11 06:43:34;;;;;;;50.63;23.52;;;;;;;-1.68;100.00;95714.91;5058572;28;20040;-48
2022/02/11 06:46:01;;;;;;;36.92;20.45;;;;;;;-1.63;100.00;95705.09;5054742;28;20045;-49
2022/02/11 06:48:31;;;;;;;61.50;25.88;;;;;;;-1.47;100.00;95707.13;5050670;28;20106;-52
2022/02/11 06:50:58;;;;;;;50.05;23.08;;;;;;;-1.33;100.00;95708.47;5050861;28;20098;-55
2022/02/11 06:53:26;;;;;;;51.78;24.83;;;;;;;-1.23;100.00;95704.16;5065477;28;20044;-49
2022/02/11 06:55:53;;;;;;;55.42;27.73;;;;;;;-1.11;100.00;95707.38;5055673;28;20059;-50
2022/02/11 06:58:23;;;;;;;54.88;25.83;;;;;;;-0.94;100.00;95707.59;5054231;28;20040;-49
2022/02/11 07:00:50;;;;;;;51.47;25.20;;;;;;;-0.80;100.00;95699.50;5061003;28;20049;-51
2022/02/11 07:03:18;;;;;;;66.63;27.08;;;;;;;-0.69;100.00;95711.31;5055222;28;20038;-52
2022/02/11 07:05:45;;;;;;;69.03;27.80;;;;;;;-0.55;100.00;95707.50;5056786;28;20037;-53
2022/02/11 07:08:12;;;;;;;69.25;28.10;;;;;;;-0.39;100.00;95717.94;5060168;28;20047;-52
2022/02/11 07:10:40;;;;;;;61.97;27.15;;;;;;;-0.25;100.00;95714.13;5058280;28;20056;-50
2022/02/11 07:13:13;;;;;;;55.45;28.40;;;;;;;-0.15;100.00;95711.50;5055957;28;22287;-49
2022/02/11 07:15:41;;;;;;;55.80;28.13;;;;;;;-0.11;100.00;95715.38;5054129;28;20044;-50
2022/02/11 07:18:09;;;;;;;79.03;43.28;;;;;;;0.06;100.00;95717.19;5050001;28;20048;-52
2022/02/11 07:20:37;;;;;;;60.03;28.48;;;;;;;0.24;100.00;95704.41;5055472;28;20048;-52
2022/02/11 07:23:04;;;;;;;55.85;26.75;;;;;;;0.39;100.00;95707.25;5057622;28;20521;-49
2022/02/11 07:25:32;;;;;;;56.20;25.77;;;;;;;0.51;100.00;95700.19;5056215;28;20045;-48
2022/02/11 07:27:59;;;;;;;74.55;29.45;;;;;;;0.61;100.00;95690.63;5056947;28;20052;-49
2022/02/11 07:30:30;;;;;;;68.82;27.27;;;;;;;0.70;100.00;95683.81;5057086;28;20049;-49
2022/02/11 07:32:57;;;;;;;67.35;32.35;;;;;;;0.99;100.00;95693.81;5055926;28;20067;-50
2022/02/11 07:35:24;;;;;;;70.93;31.00;;;;;;;1.19;100.00;95696.19;5054604;28;20041;-50
2022/02/11 07:37:51;;;;;;;54.08;28.85;;;;;;;1.28;100.00;95688.38;5055479;28;20106;-51
2022/02/11 07:40:19;;;;;;;65.80;28.27;;;;;;;1.36;100.00;95694.53;5053447;28;20040;-53
2022/02/11 07:42:51;;;;;;;57.22;27.30;;;;;;;1.42;100.00;95693.91;5049792;28;20053;-52
2022/02/11 07:45:20;;;;;;;57.10;27.10;;;;;;;1.45;100.00;95688.47;5051294;28;20139;-53
2022/02/11 07:47:48;;;;;;;53.95;26.58;;;;;;;1.56;100.00;95684.84;5047291;28;20821;-49
2022/02/11 07:50:15;;;;;;;57.03;29.77;;;;;;;1.80;100.00;95686.69;5052092;28;20068;-51
2022/02/11 07:52:41;;;;;;;55.70;29.67;;;;;;;1.92;100.00;95685.44;5055182;28;20076;-52
2022/02/11 07:55:08;;;;;;;63.78;30.58;;;;;;;2.07;100.00;95678.75;5055651;28;20495;-52
2022/02/11 07:57:35;;;;;;;58.42;28.48;;;;;;;2.25;100.00;95685.53;5050491;28;20049;-50
2022/02/11 08:00:04;;;;;;;53.90;28.15;;;;;;;2.44;100.00;95684.44;5051179;28;20142;-53
2022/02/11 08:02:40;;;;;;;54.58;27.00;;;;;;;2.65;100.00;95689.13;5049007;28;20044;-49
2022/02/11 08:05:08;;;;;;;71.13;31.02;;;;;;;2.83;100.00;95687.19;5048891;28;20041;-46
2022/02/11 08:07:35;;;;;;;78.18;32.85;;;;;;;2.99;100.00;95693.28;5052422;28;20691;-47
2022/02/11 08:10:02;;;;;;;75.63;33.63;;;;;;;3.09;100.00;95673.34;5049780;28;20049;-48
2022/02/11 08:12:34;;;;;;;86.97;38.30;;;;;;;3.23;100.00;95689.91;5051906;28;20041;-49
2022/02/11 08:15:04;;;;;;;59.83;30.35;;;;;;;3.15;100.00;95693.28;5052333;28;20117;-53
2022/02/11 08:17:31;;;;;;;63.15;29.45;;;;;;;3.18;100.00;95687.78;5056380;28;20032;-52
2022/02/11 08:19:58;;;;;;;59.42;27.40;;;;;;;3.35;100.00;95688.59;5051120;28;20056;-50
2022/02/11 08:22:25;;;;;;;57.55;28.75;;;;;;;3.36;100.00;95679.09;5056968;28;20041;-51
2022/02/11 08:24:52;;;;;;;67.20;34.30;;;;;;;3.45;100.00;95683.25;5055939;28;20472;-52
2022/02/11 08:27:18;;;;;;;47.63;25.55;;;;;;;3.59;100.00;95679.97;5057785;28;20533;-53
2022/02/11 08:29:46;;;;;;;54.20;23.17;;;;;;;3.67;100.00;95686.06;5053248;28;20053;-49
2022/02/11 08:32:13;;;;;;;34.95;16.40;;;;;;;3.65;100.00;95683.66;5048636;28;20049;-51
2022/02/11 08:34:40;;;;;;;39.85;17.40;;;;;;;3.64;100.00;95688.00;5054027;28;21996;-48
2022/02/11 08:37:07;;;;;;;35.60;18.77;;;;;;;3.79;100.00;95685.53;5052249;28;20045;-46
2022/02/11 08:39:38;;;;;;;36.20;19.65;;;;;;;3.90;100.00;95676.63;5054254;28;20060;-50
2022/02/11 08:42:07;;;;;;;33.05;17.95;;;;;;;4.15;100.00;95673.94;5053477;28;20072;-45
2022/02/11 08:44:35;;;;;;;31.42;15.07;;;;;;;4.16;100.00;95680.69;5057648;28;20055;-47
2022/02/11 08:47:02;;;;;;;38.92;16.58;;;;;;;4.12;99.99;95658.81;5054061;28;20139;-51
2022/02/11 08:49:30;;;;;;;37.20;15.38;;;;;;;4.04;100.00;95666.59;5046906;28;20056;-47
2022/02/11 08:51:57;;;;;;;36.72;19.40;;;;;;;4.01;100.00;95670.28;5053461;28;20120;-47
2022/02/11 08:54:24;;;;;;;43.58;19.05;;;;;;;4.14;100.00;95664.59;5047149;28;20052;-51
2022/02/11 08:56:50;;;;;;;37.00;18.73;;;;;;;4.24;100.00;95662.59;5055435;28;20167;-49
2022/02/11 08:59:17;;;;;;;36.10;18.73;;;;;;;4.30;100.00;95661.91;5053632;28;20048;-49
2022/02/11 09:01:44;;;;;;;38.22;17.42;;;;;;;4.39;100.00;95660.06;5058255;28;20057;-49
2022/02/11 09:04:11;;;;;;;45.15;18.92;;;;;;;4.57;100.00;95652.06;5058332;28;20044;-49
2022/02/11 09:06:37;;;;;;;38.53;16.88;;;;;;;4.73;100.00;95646.75;5057908;28;20485;-49
2022/02/11 09:09:04;;;;;;;38.17;17.70;;;;;;;4.91;100.00;95653.41;5056141;28;20113;-50
2022/02/11 09:11:31;;;;;;;42.20;18.73;;;;;;;5.00;100.00;95652.34;5046838;28;20045;-50
2022/02/11 09:14:01;;;;;;;39.78;17.88;;;;;;;5.06;98.85;95641.31;5048608;28;20048;-51
2022/02/11 09:16:30;;;;;;;38.45;17.27;;;;;;;5.12;98.17;95642.41;5051288;28;20052;-49
2022/02/11 09:18:57;;;;;;;39.10;19.23;;;;;;;5.26;97.97;95645.97;5051192;28;20520;-52
2022/02/11 09:21:24;;;;;;;37.00;18.45;;;;;;;5.16;98.33;95647.00;5050520;28;20111;-46
2022/02/11 09:23:51;;;;;;;44.25;20.10;;;;;;;5.28;98.81;95644.03;5052659;28;20434;-49
2022/02/11 09:26:18;;;;;;;32.33;15.25;;;;;;;5.41;98.08;95639.03;5058594;28;20110;-52
2022/02/11 09:28:45;;;;;;;38.72;16.50;;;;;;;5.51;97.59;95638.75;5052985;28;20099;-52
2022/02/11 09:31:12;;;;;;;33.95;17.23;;;;;;;5.57;96.81;95637.25;5054348;28;20537;-53
2022/02/11 09:33:39;;;;;;;40.55;19.45;;;;;;;5.69;96.62;95630.63;5048513;28;20057;-48
2022/02/11 09:36:07;;;;;;;34.00;16.92;;;;;;;6.01;95.93;95631.22;5052376;28;20053;-48
2022/02/11 09:38:34;;;;;;;39.75;17.73;;;;;;;6.17;94.88;95633.56;5054165;28;20064;-50
2022/02/11 09:41:01;;;;;;;34.85;15.63;;;;;;;6.20;93.72;95627.25;5055087;28;20053;-49
2022/02/11 09:43:28;;;;;;;30.58;17.15;;;;;;;6.31;93.40;95622.38;5050645;28;20494;-52
2022/02/11 09:45:55;;;;;;;33.65;17.83;;;;;;;6.35;93.15;95619.44;5052012;28;20066;-49
2022/02/11 09:48:23;;;;;;;41.22;16.95;;;;;;;6.43;93.53;95606.38;5051822;28;20053;-47
2022/02/11 09:50:55;;;;;;;37.20;16.90;;;;;;;6.73;92.29;95619.16;5051593;28;20072;-51
2022/02/11 09:53:27;;;;;;;22.90;12.23;;;;;;;6.70;92.08;95617.75;5049997;28;20502;-51
2022/02/11 09:55:55;;;;;;;36.90;16.67;;;;;;;6.83;91.33;95617.84;5054340;28;20478;-47
2022/02/11 09:58:21;;;;;;;31.83;14.05;;;;;;;6.93;90.25;95622.69;5053682;28;20044;-49
2022/02/11 10:00:50;;;;;;;26.25;13.60;;;;;;;7.06;89.03;95617.63;5052988;28;20106;-50
2022/02/11 10:03:18;;;;;;;26.50;13.95;;;;;;;7.27;89.79;95613.34;5053094;28;20052;-48
2022/02/11 10:05:49;;;;;;;28.02;12.57;;;;;;;7.29;86.74;95616.53;5052493;28;20032;-52
2022/02/11 10:08:17;;;;;;;24.95;12.82;;;;;;;7.46;86.22;95610.06;5054503;28;20036;-52
2022/02/11 10:10:52;;;;;;;25.73;13.05;;;;;;;7.70;86.65;95613.16;5058813;28;20045;-50
2022/02/11 10:13:28;;;;;;;24.98;11.65;;;;;;;7.88;84.31;95601.47;5050554;28;20801;-49
2022/02/11 10:16:02;;;;;;;14.73;6.88;;;;;;;7.80;81.40;95586.88;5054403;28;20068;-54
2022/02/11 10:18:31;;;;;;;16.42;7.90;;;;;;;8.02;80.75;95584.94;5054427;28;20072;-54
2022/02/11 10:21:00;;;;;;;20.92;8.57;;;;;;;8.18;80.27;95584.59;5056429;28;20032;-52
2022/02/11 10:23:31;;;;;;;14.23;7.95;;;;;;;8.29;78.52;95585.00;5052388;28;20036;-50
2022/02/11 10:26:10;;;;;;;15.35;7.88;;;;;;;8.49;76.13;95585.84;5053564;28;20045;-46
2022/02/11 10:28:48;;;;;;;11.68;6.68;;;;;;;8.80;76.02;95579.25;5060691;28;20120;-48
2022/02/11 10:31:35;;;;;;;14.95;7.03;;;;;;;9.07;74.63;95567.03;5061300;28;20045;-48
2022/02/11 10:34:11;;;;;;;11.50;6.50;;;;;;;9.18;71.33;95568.19;5049008;28;20045;-50
2022/02/11 10:36:49;;;;;;;13.65;6.78;;;;;;;9.28;67.79;95558.19;5046678;28;20099;-49
2022/02/11 10:39:20;;;;;;;14.52;7.15;;;;;;;9.36;67.76;95544.97;5054324;28;20048;-48
2022/02/11 10:41:54;;;;;;;16.83;7.32;;;;;;;9.39;65.23;95554.16;5049400;28;20049;-49
2022/02/11 10:44:29;;;;;;;13.50;5.93;;;;;;;9.37;64.38;95546.56;5050792;28;20045;-50
2022/02/11 10:47:04;;;;;;;46.70;18.23;;;;;;;9.67;65.83;95546.03;5056234;28;20422;-47
2022/02/11 10:49:36;;;;;;;17.80;8.65;;;;;;;9.77;63.94;95541.19;5049534;28;20052;-48
2022/02/11 10:52:09;;;;;;;12.27;6.82;;;;;;;10.00;63.72;95539.06;5051706;28;20044;-49
2022/02/11 10:54:36;;;;;;;13.07;7.28;;;;;;;10.18;63.15;95525.34;5051850;28;20052;-51
2022/02/11 10:57:09;;;;;;;13.50;7.18;;;;;;;10.43;62.23;95534.00;5049149;28;20477;-47
2022/02/11 10:59:39;;;;;;;15.30;7.00;;;;;;;10.61;60.18;95529.84;5058149;28;20066;-48
2022/02/11 11:02:10;;;;;;;15.32;7.97;;;;;;;10.59;60.81;95537.06;5062237;28;20045;-52
2022/02/11 11:04:37;;;;;;;16.20;7.90;;;;;;;10.70;62.31;95528.56;5053040;28;20387;-51
2022/02/11 11:07:04;;;;;;;16.38;8.02;;;;;;;10.86;60.46;95524.63;5048432;28;20093;-48
2022/02/11 11:09:34;;;;;;;11.38;7.07;;;;;;;10.88;57.20;95526.00;5049133;28;20048;-50
2022/02/11 11:12:02;;;;;;;11.18;5.75;;;;;;;11.07;58.27;95512.97;5049443;28;20044;-51
2022/02/11 11:14:30;;;;;;;19.80;8.32;;;;;;;11.44;58.16;95518.19;5056607;28;20044;-50
2022/02/11 11:17:00;;;;;;;23.25;7.80;;;;;;;11.32;57.37;95514.72;5050364;28;20045;-49
2022/02/11 11:19:33;;;;;;;25.98;11.63;;;;;;;11.46;57.08;95511.72;5047846;28;20090;-47
2022/02/11 11:22:16;;;;;;;14.95;7.47;;;;;;;11.27;57.18;95502.31;5047664;28;20433;-51
2022/02/11 11:25:05;;;;;;;12.93;6.82;;;;;;;11.53;53.73;95509.03;5055701;28;20045;-48
2022/02/11 11:27:51;;;;;;;15.18;6.43;;;;;;;11.52;53.59;95502.22;5054544;28;20101;-48
2022/02/11 11:30:32;;;;;;;17.38;7.60;;;;;;;11.83;53.48;95490.78;5053804;28;20114;-52
2022/02/11 11:33:07;;;;;;;13.00;6.43;;;;;;;11.94;53.51;95491.06;5051153;28;20043;-51
2022/02/11 11:36:03;;;;;;;13.00;7.40;;;;;;;12.28;52.79;95481.72;5053767;28;20053;-48
2022/02/11 11:38:39;;;;;;;23.17;10.98;;;;;;;12.89;55.80;95481.50;5043945;28;20053;-50
2022/02/11 11:41:12;;;;;;;17.77;9.82;;;;;;;13.37;53.22;95475.19;5048445;28;20060;-47
2022/02/11 11:43:52;;;;;;;13.93;8.45;;;;;;;13.85;50.88;95463.50;5054865;28;20187;-47
2022/02/11 11:46:20;;;;;;;12.30;7.30;;;;;;;13.91;47.02;95459.94;5049915;28;20117;-48
2022/02/11 11:49:03;;;;;;;10.90;6.43;;;;;;;14.26;46.72;95456.31;5051862;28;20051;-51
2022/02/11 11:51:51;;;;;;;17.40;9.30;;;;;;;14.79;48.84;95445.56;5046451;28;20037;-51
2022/02/11 11:54:21;;;;;;;15.52;9.00;;;;;;;15.14;47.01;95449.66;5051404;28;20044;-48
2022/02/11 11:56:55;;;;;;;17.13;9.45;;;;;;;15.42;47.24;95436.34;5046235;28;20041;-50
2022/02/11 11:59:24;;;;;;;15.18;7.57;;;;;;;15.56;47.00;95433.34;5045747;28;20587;-50
2022/02/11 12:02:01;;;;;;;12.15;7.43;;;;;;;15.79;45.71;95432.28;5047933;28;20053;-47
2022/02/11 12:04:32;;;;;;;18.65;9.57;;;;;;;16.19;45.77;95426.59;5046645;28;20055;-50
2022/02/11 12:07:16;;;;;;;16.42;8.88;;;;;;;16.52;45.08;95416.81;5047261;28;20044;-51
2022/02/11 12:09:45;;;;;;;14.13;8.10;;;;;;;16.73;45.69;95422.22;5056088;28;20049;-50
2022/02/11 12:12:13;;;;;;;16.13;8.40;;;;;;;17.00;42.96;95420.25;5048603;28;20053;-51
2022/02/11 12:14:45;;;;;;;12.30;7.43;;;;;;;17.23;43.47;95420.06;5049092;28;20037;-47
2022/02/11 12:17:15;;;;;;;13.73;7.88;;;;;;;17.52;42.07;95409.88;5057602;28;20040;-49
2022/02/11 12:19:44;;;;;;;17.85;9.27;;;;;;;17.90;40.94;95410.50;5049485;28;20079;-53
2022/02/11 12:22:12;;;;;;;14.18;8.27;;;;;;;18.28;40.54;95400.50;5048537;28;20053;-48
2022/02/11 12:27:31;;;;;;;14.73;7.50;;;;;;;18.49;36.58;95407.31;5056356;28;21005;-52
2022/02/11 12:30:06;;;;;;;15.57;8.13;;;;;;;18.76;37.77;95400.91;5049692;28;20061;-49
2022/02/11 12:32:40;;;;;;;14.15;8.93;;;;;;;18.90;36.89;95406.44;5053759;28;20044;-51
2022/02/11 12:35:11;;;;;;;16.85;8.93;;;;;;;19.26;37.21;95399.16;5046740;28;20140;-48
2022/02/11 12:37:39;;;;;;;16.35;8.35;;;;;;;19.12;34.55;95398.16;5045763;28;20131;-48
2022/02/11 12:40:13;;;;;;;14.93;7.82;;;;;;;18.82;35.35;95393.81;5046081;28;20059;-49
2022/02/11 12:42:45;;;;;;;17.92;10.23;;;;;;;19.02;35.99;95398.22;5047390;28;20052;-47
2022/02/11 12:45:28;;;;;;;11.63;7.88;;;;;;;18.68;35.58;95388.28;5043697;28;20108;-52
2022/02/11 12:47:55;;;;;;;19.98;9.75;;;;;;;18.87;34.60;95386.66;5047442;28;20041;-49
2022/02/11 12:50:34;;;;;;;33.90;15.88;;;;;;;19.35;35.55;95390.69;5042177;28;20052;-49
2022/02/11 12:53:04;;;;;;;16.13;8.02;;;;;;;19.84;35.08;95372.16;5046940;28;20045;-49
2022/02/11 12:55:36;;;;;;;18.30;9.00;;;;;;;19.48;34.85;95380.31;5044864;28;20107;-51
2022/02/11 12:58:10;;;;;;;17.48;9.80;;;;;;;20.24;34.75;95372.09;5047452;28;20068;-50
2022/02/11 13:00:39;;;;;;;11.57;6.85;;;;;;;20.73;33.71;95365.81;5045673;28;20407;-49
2022/02/11 13:03:10;;;;;;;18.15;10.02;;;;;;;21.26;33.01;95369.41;5046039;28;20052;-53
2022/02/11 13:05:42;;;;;;;19.70;9.95;;;;;;;21.57;31.19;95370.59;5047390;28;20051;-51
2022/02/11 13:08:10;;;;;;;15.02;8.70;;;;;;;21.93;30.69;95375.38;5045941;28;20116;-52
2022/02/11 13:10:39;;;;;;;24.35;11.55;;;;;;;22.26;30.34;95372.72;5050456;28;20102;-52
2022/02/11 13:13:17;;;;;;;15.93;9.90;;;;;;;22.60;29.36;95370.78;5049233;28;20538;-51
2022/02/11 13:15:46;;;;;;;14.68;7.40;;;;;;;20.66;30.53;95370.66;5047541;28;20041;-50
2022/02/11 13:18:14;;;;;;;22.52;11.40;;;;;;;19.84;33.17;95372.16;5048853;28;20045;-48
2022/02/11 13:20:48;;;;;;;21.45;11.63;;;;;;;20.09;32.61;95362.44;5046221;28;20052;-52
2022/02/11 13:23:19;;;;;;;17.17;9.57;;;;;;;20.57;32.06;95364.38;5057912;28;20051;-53
2022/02/11 13:25:47;;;;;;;20.13;8.88;;;;;;;21.16;32.46;95365.03;5058713;28;20041;-52
2022/02/11 13:28:19;;;;;;;13.45;8.45;;;;;;;21.75;31.55;95362.91;5054522;28;20541;-50
2022/02/11 13:30:54;;;;;;;12.70;7.75;;;;;;;22.01;31.49;95370.47;5050353;28;20049;-50
2022/02/11 13:33:24;;;;;;;17.00;9.93;;;;;;;21.19;30.85;95367.91;5053394;28;20040;-47
2022/02/11 13:35:53;;;;;;;14.57;8.85;;;;;;;21.85;30.75;95365.41;5056844;28;20048;-48
2022/02/11 13:38:47;;;;;;;16.17;7.53;;;;;;;22.57;30.41;95363.44;5050419;28;20111;-49
2022/02/11 13:41:15;;;;;;;17.35;11.00;;;;;;;22.61;29.75;95367.84;5050352;28;20049;-49
2022/02/11 13:44:07;;;;;;;18.80;9.90;;;;;;;23.05;28.72;95366.50;5056612;28;20052;-53
2022/02/11 13:46:53;;;;;;;15.30;9.35;;;;;;;23.21;28.21;95363.53;5046901;28;20120;-53
2022/02/11 13:49:21;;;;;;;16.17;8.18;;;;;;;23.51;27.59;95371.94;5049278;28;20056;-53
2022/02/11 13:55:05;;;;;;;16.30;8.90;;;;;;;24.32;27.02;95365.78;5047526;28;20033;-52
2022/02/11 13:57:34;;;;;;;12.65;7.03;;;;;;;24.61;26.75;95366.13;5051977;28;20063;-50
2022/02/11 14:00:23;;;;;;;10.82;7.20;;;;;;;24.77;26.30;95368.38;5049080;28;20045;-53
2022/02/11 14:02:50;;;;;;;17.55;10.73;;;;;;;24.95;25.83;95354.00;5049596;28;20033;-52
2022/02/11 14:05:18;;;;;;;14.15;8.32;;;;;;;24.72;25.10;95363.97;5053600;28;20426;-49
2022/02/11 14:07:55;;;;;;;12.40;7.95;;;;;;;24.89;25.73;95365.91;5046605;28;20128;-50
2022/02/11 14:10:23;;;;;;;11.13;6.72;;;;;;;25.08;25.93;95356.84;5050543;28;20043;-50
2022/02/11 14:13:06;;;;;;;13.23;7.78;;;;;;;25.39;24.80;95356.78;5048842;28;20411;-51
2022/02/11 14:15:34;;;;;;;12.07;6.72;;;;;;;25.53;24.58;95356.63;5044812;28;20053;-49
2022/02/11 14:18:05;;;;;;;11.85;7.80;;;;;;;25.67;24.25;95351.91;5048646;28;20102;-50
2022/02/11 14:20:37;;;;;;;13.77;7.30;;;;;;;25.95;23.87;95351.63;5048585;28;20049;-48
2022/02/11 14:23:31;;;;;;;11.65;6.45;;;;;;;26.36;23.80;95360.16;5048079;28;20050;-50
2022/02/11 14:25:58;;;;;;;14.05;7.25;;;;;;;26.41;23.89;95363.44;5041419;28;20053;-47
2022/02/11 14:28:26;;;;;;;10.93;7.35;;;;;;;26.40;23.37;95356.53;5051683;28;20053;-51
2022/02/11 14:30:56;;;;;;;13.93;7.13;;;;;;;26.68;23.11;95356.16;5048272;28;20040;-50
2022/02/11 14:33:23;;;;;;;11.43;7.63;;;;;;;26.85;22.66;95356.09;5047559;28;20052;-51
2022/02/11 14:35:50;;;;;;;9.32;6.40;;;;;;;26.95;23.22;95362.16;5047623;28;20434;-51
2022/02/11 14:38:16;;;;;;;13.23;7.55;;;;;;;27.16;21.63;95365.66;5049470;28;20053;-48
2022/02/11 14:41:46;;;;;;;11.00;6.97;;;;;;;27.35;22.37;95356.44;5049890;28;20057;-48
2022/02/11 14:43:31;;;;;;;11.20;7.03;;;;;;;27.38;22.16;95340.53;5047580;28;20502;-48
2022/02/11 14:45:57;;;;;;;12.20;6.95;;;;;;;27.62;22.01;95361.28;5046577;28;20065;-51
2022/02/11 14:48:24;;;;;;;11.70;7.43;;;;;;;27.45;22.34;95354.16;5045062;28;20107;-51
2022/02/11 14:50:51;;;;;;;12.15;7.20;;;;;;;27.48;22.69;95352.75;5045106;28;20044;-53
2022/02/11 14:53:18;;;;;;;11.27;6.53;;;;;;;27.55;21.80;95350.31;5049806;28;20044;-48
2022/02/11 14:55:45;;;;;;;10.45;6.00;;;;;;;27.39;21.87;95352.03;5048588;28;20075;-50
2022/02/11 14:58:12;;;;;;;26.67;17.98;;;;;;;27.14;22.12;95322.44;5045420;28;20064;-53
2022/02/11 15:00:39;;;;;;;23.55;15.18;;;;;;;27.36;23.00;95348.09;5048877;28;20045;-52
2022/02/11 15:03:06;;;;;;;22.42;11.82;;;;;;;27.73;21.97;95352.84;5044190;28;20068;-49
2022/02/11 15:05:33;;;;;;;14.50;9.50;;;;;;;27.91;21.87;95351.63;5045773;28;20044;-49
2022/02/11 15:07:59;;;;;;;13.48;8.35;;;;;;;28.01;21.38;95348.53;5049733;28;20045;-50
2022/02/11 15:10:26;;;;;;;12.43;7.97;;;;;;;27.78;21.78;95344.63;5046667;28;20052;-50
2022/02/11 15:12:53;;;;;;;10.55;7.50;;;;;;;27.52;22.02;95350.97;5046749;28;20053;-49
2022/02/11 15:15:20;;;;;;;10.82;6.80;;;;;;;27.33;21.38;95342.63;5044654;28;20075;-49
2022/02/11 15:17:47;;;;;;;14.02;10.48;;;;;;;27.01;22.14;95344.81;5049286;28;20040;-48
2022/02/11 15:20:13;;;;;;;20.63;13.70;;;;;;;26.57;23.32;95349.56;5049158;28;20072;-53
2022/02/11 15:22:40;;;;;;;17.33;11.10;;;;;;;26.31;23.33;95353.13;5050730;28;20045;-52
2022/02/11 15:25:07;;;;;;;16.58;11.23;;;;;;;25.43;24.58;95346.28;5050414;28;20063;-55
2022/02/11 15:27:34;;;;;;;15.50;10.65;;;;;;;25.11;25.04;95350.91;5058347;28;20064;-50
2022/02/11 15:30:02;;;;;;;15.60;9.90;;;;;;;24.46;25.75;95347.84;5046379;28;20515;-48
2022/02/11 15:32:28;;;;;;;15.60;7.53;;;;;;;23.71;27.24;95344.88;5053367;28;20049;-47